CheckWX is a tool to help pilots better visualize weather data.  It is not intended as a substitute for an official pre-flight weather briefing.

13:23:08 UTC

KAWM METAR
West Memphis Municipal Airport
West Memphis, Arkansas, USA
Current

30 mins ago

KAWM 181253Z AUTO 17005KT 10SM CLR 26/24 A2994 RMK AO2 SLP134 T02610239 $
Observed
Aug-18 @ 12:53 UTC
Wind
  • 170° at 5 KTS
Visibility
10 SM
Flight Rules
VFR
Cloud Levels
  • Clear skies
Temperature
26°C / 79°F
Dewpoint
24°C / 75°F
Humidity
89%
Altimeter
29.94" Hg
Pressure
1013.92 hPa
Previous

2 hours ago

KAWM 181153Z AUTO 17004KT 9SM CLR 24/22 A2993 RMK AO2 SLP131 T02390222 10244 20228 53011 $
Observed
Aug-18 @ 11:53 UTC
Wind
  • 170° at 4 KTS
Visibility
9 SM
Flight Rules
VFR
Cloud Levels
  • Clear skies
Temperature
24°C / 75°F
Dewpoint
22°C / 72°F
Humidity
89%
Altimeter
29.93" Hg
Pressure
1013.52 hPa
Previous

3 hours ago

KAWM 181053Z AUTO 17004KT 10SM CLR 23/22 A2992 RMK AO2 SLP127 T02330222 $
Observed
Aug-18 @ 10:53 UTC
Wind
  • 170° at 4 KTS
Visibility
10 SM
Flight Rules
VFR
Cloud Levels
  • Clear skies
Temperature
23°C / 73°F
Dewpoint
22°C / 72°F
Humidity
94%
Altimeter
29.92" Hg
Pressure
1013.22 hPa